金門航空站 - ATIS

METAR RCBS 141200Z 04012KT CAVOK 18/12 Q1023 NOSIG RMK A3021(M)=

站台狀態:Online
最後更新:2019-12-15 00:15:02